createdAt,value
2023-01-29T00:01:49.183Z,-1.20
2023-01-29T00:06:52.029Z,-1.22
2023-01-29T00:11:54.752Z,-1.21
2023-01-29T00:16:57.484Z,-1.20
2023-01-29T00:22:00.322Z,-1.21
2023-01-29T00:27:03.762Z,-1.20
2023-01-29T00:32:06.584Z,-1.18
2023-01-29T00:37:09.339Z,-1.17
2023-01-29T00:42:30.700Z,-1.14
2023-01-29T00:47:33.852Z,-1.13
2023-01-29T00:52:37.320Z,-1.10
2023-01-29T00:57:40.324Z,-1.09
2023-01-29T01:03:01.650Z,-1.05
2023-01-29T01:08:24.917Z,-1.01
2023-01-29T01:13:28.161Z,-1.01
2023-01-29T01:18:31.429Z,-0.98
2023-01-29T01:23:34.802Z,-0.99
2023-01-29T01:28:37.586Z,-0.98
2023-01-29T01:33:41.385Z,-0.98
2023-01-29T01:38:44.688Z,-0.95
2023-01-29T01:44:06.770Z,-0.91
2023-01-29T01:49:12.011Z,-0.91
2023-01-29T01:54:21.792Z,-0.90
2023-01-29T01:59:24.682Z,-0.93
2023-01-29T02:04:46.337Z,-0.96
2023-01-29T02:09:56.497Z,-0.96
2023-01-29T02:15:00.407Z,-0.96
2023-01-29T02:20:18.112Z,-0.94
2023-01-29T02:25:39.538Z,-0.93
2023-01-29T02:30:53.329Z,-0.90
2023-01-29T02:36:10.225Z,-0.91
2023-01-29T02:41:22.463Z,-0.92
2023-01-29T02:46:47.075Z,-0.96
2023-01-29T02:51:54.945Z,-0.96
2023-01-29T02:57:09.997Z,-0.99
2023-01-29T03:02:18.856Z,-1.01
2023-01-29T03:07:46.717Z,-1.06
2023-01-29T03:12:59.768Z,-1.05
2023-01-29T03:18:11.800Z,-1.06
2023-01-29T03:23:23.823Z,-1.06
2023-01-29T03:28:49.105Z,-1.07
2023-01-29T03:33:59.862Z,-1.07
2023-01-29T03:39:02.597Z,-1.11
2023-01-29T03:44:28.231Z,-1.13
2023-01-29T03:49:49.766Z,-1.13
2023-01-29T03:55:26.883Z,-1.12
2023-01-29T04:00:37.556Z,-1.13
2023-01-29T04:05:45.068Z,-1.11
2023-01-29T04:10:51.193Z,-1.11
2023-01-29T04:15:58.333Z,-1.10
2023-01-29T04:21:01.764Z,-1.08
2023-01-29T04:26:24.850Z,-1.12
2023-01-29T04:31:34.608Z,-1.13
2023-01-29T04:36:49.779Z,-1.14
2023-01-29T04:42:10.624Z,-1.14
2023-01-29T04:47:28.909Z,-1.16
2023-01-29T04:52:50.826Z,-1.14
2023-01-29T04:58:04.493Z,-1.12
2023-01-29T05:03:09.765Z,-1.11
2023-01-29T05:08:17.059Z,-1.09
2023-01-29T05:13:22.202Z,-1.06
2023-01-29T05:18:24.921Z,-1.06
2023-01-29T05:23:27.612Z,-1.03
2023-01-29T05:28:30.689Z,-1.04
2023-01-29T05:33:33.420Z,-1.02
2023-01-29T05:38:36.117Z,-1.04
2023-01-29T05:43:38.834Z,-1.03
2023-01-29T05:48:41.580Z,-1.01
2023-01-29T05:53:44.321Z,-0.97
2023-01-29T05:58:47.439Z,-0.98
2023-01-29T06:03:50.338Z,-0.98
2023-01-29T06:08:53.138Z,-0.94
2023-01-29T06:13:55.791Z,-0.93
2023-01-29T06:18:58.624Z,-0.91
2023-01-29T06:24:01.451Z,-0.90
2023-01-29T06:29:04.176Z,-0.87
2023-01-29T06:34:08.487Z,-0.86
2023-01-29T06:39:11.329Z,-0.83
2023-01-29T06:44:14.072Z,-0.81
2023-01-29T06:49:16.873Z,-0.82
2023-01-29T06:54:19.571Z,-0.78
2023-01-29T06:59:22.291Z,-0.76
2023-01-29T07:04:25.069Z,-0.73
2023-01-29T07:09:27.723Z,-0.70
2023-01-29T07:14:30.468Z,-0.70
2023-01-29T07:19:33.281Z,-0.65
2023-01-29T07:24:36.074Z,-0.65
2023-01-29T07:29:38.871Z,-0.66
2023-01-29T07:34:41.672Z,-0.65
2023-01-29T07:39:44.590Z,-0.65
2023-01-29T07:44:47.274Z,-0.64
2023-01-29T07:49:50.079Z,-0.62
2023-01-29T07:54:52.879Z,-0.54
2023-01-29T07:59:55.685Z,-0.49
2023-01-29T08:04:58.357Z,-0.42
2023-01-29T08:10:01.050Z,-0.37
2023-01-29T08:15:04.402Z,-0.35
2023-01-29T08:20:07.701Z,-0.29
2023-01-29T08:25:10.700Z,-0.24
2023-01-29T08:30:13.919Z,-0.21
2023-01-29T08:35:16.862Z,-0.19
2023-01-29T08:40:19.869Z,-0.13
2023-01-29T08:45:22.768Z,-0.05
2023-01-29T08:50:25.648Z,-0.01
2023-01-29T08:55:29.249Z,0.02
2023-01-29T09:00:33.391Z,0.08
2023-01-29T09:05:37.930Z,0.14
2023-01-29T09:10:40.841Z,0.24
2023-01-29T09:15:43.550Z,0.30
2023-01-29T09:20:46.212Z,0.30
2023-01-29T09:25:49.553Z,0.28
2023-01-29T09:30:53.617Z,0.27
2023-01-29T09:35:56.974Z,0.29
2023-01-29T09:41:14.748Z,0.27
2023-01-29T09:46:39.462Z,0.27
2023-01-29T09:51:47.658Z,0.30
2023-01-29T09:56:55.024Z,0.35
2023-01-29T10:02:22.909Z,0.45
2023-01-29T10:07:59.460Z,0.62
2023-01-29T10:13:20.205Z,0.75
2023-01-29T10:18:32.104Z,0.81
2023-01-29T10:23:41.068Z,0.82
2023-01-29T10:28:47.754Z,0.75
2023-01-29T10:34:24.039Z,0.71
2023-01-29T10:39:27.270Z,0.68
2023-01-29T10:44:39.673Z,0.70
2023-01-29T10:50:11.504Z,0.74
2023-01-29T10:55:52.349Z,0.77
2023-01-29T11:00:55.412Z,0.76
2023-01-29T11:06:00.927Z,0.79
2023-01-29T11:11:15.559Z,0.79
2023-01-29T11:16:18.333Z,0.77
2023-01-29T11:21:21.611Z,0.78
2023-01-29T11:26:24.417Z,0.81
2023-01-29T11:31:35.792Z,0.81
2023-01-29T11:36:39.829Z,0.81
2023-01-29T11:41:45.005Z,0.82
2023-01-29T11:46:49.069Z,0.87
2023-01-29T11:51:56.095Z,0.89
2023-01-29T11:56:58.940Z,0.95
2023-01-29T12:02:26.733Z,0.96
2023-01-29T12:07:30.862Z,0.92
2023-01-29T12:12:40.049Z,0.89
2023-01-29T12:17:50.903Z,0.85
2023-01-29T12:22:57.945Z,0.82
2023-01-29T12:28:09.666Z,0.82
2023-01-29T12:33:41.395Z,0.83
2023-01-29T12:38:45.222Z,0.85
2023-01-29T12:43:57.935Z,0.88
2023-01-29T12:49:05.035Z,0.90
2023-01-29T12:54:12.221Z,0.90
2023-01-29T12:59:29.227Z,0.88
2023-01-29T13:04:44.325Z,0.88
2023-01-29T13:09:53.427Z,0.86
2023-01-29T13:15:05.445Z,0.85
2023-01-29T13:20:30.102Z,0.82
2023-01-29T13:25:33.248Z,0.84
2023-01-29T13:30:37.482Z,0.84
2023-01-29T13:35:43.149Z,0.87
2023-01-29T13:40:50.812Z,0.84
2023-01-29T13:45:54.807Z,0.82
2023-01-29T13:51:02.209Z,0.82
2023-01-29T13:56:44.155Z,0.83
2023-01-29T14:01:46.773Z,0.83
2023-01-29T14:06:54.581Z,0.83
2023-01-29T14:11:57.463Z,0.81
2023-01-29T14:17:03.436Z,0.81
2023-01-29T14:22:06.350Z,0.80
2023-01-29T14:27:21.639Z,0.79
2023-01-29T14:32:26.311Z,0.79
2023-01-29T14:37:34.460Z,0.79
2023-01-29T14:42:58.615Z,0.77
2023-01-29T14:48:04.939Z,0.75
2023-01-29T14:53:35.491Z,0.74
2023-01-29T14:59:02.521Z,0.73
2023-01-29T15:04:11.993Z,0.73
2023-01-29T15:09:35.889Z,0.74
2023-01-29T15:14:52.453Z,0.72
2023-01-29T15:19:56.945Z,0.72
2023-01-29T15:25:20.437Z,0.70
2023-01-29T15:30:29.354Z,0.71
2023-01-29T15:35:37.605Z,0.70
2023-01-29T15:40:40.471Z,0.71
2023-01-29T15:45:43.408Z,0.72
2023-01-29T15:50:47.529Z,0.71
2023-01-29T15:55:51.687Z,0.75
2023-01-29T16:00:57.232Z,0.77
2023-01-29T16:06:01.684Z,0.77
2023-01-29T16:11:07.296Z,0.78
2023-01-29T16:16:16.274Z,0.78
2023-01-29T16:21:41.393Z,0.78
2023-01-29T16:26:47.758Z,0.80
2023-01-29T16:31:53.045Z,0.82
2023-01-29T16:36:57.181Z,0.85
2023-01-29T16:42:22.777Z,0.85
2023-01-29T16:47:28.903Z,0.85
2023-01-29T16:52:34.063Z,0.86
2023-01-29T16:57:39.209Z,0.85
2023-01-29T17:02:42.032Z,0.84
2023-01-29T17:07:46.460Z,0.82
2023-01-29T17:13:05.955Z,0.80
2023-01-29T17:18:25.044Z,0.80
2023-01-29T17:23:28.230Z,0.81
2023-01-29T17:28:31.054Z,0.81
2023-01-29T17:33:36.313Z,0.81
2023-01-29T17:38:39.794Z,0.80
2023-01-29T17:43:44.361Z,0.79
2023-01-29T17:48:49.247Z,0.76
2023-01-29T17:53:51.957Z,0.76
2023-01-29T17:58:54.817Z,0.73
2023-01-29T18:03:57.530Z,0.70
2023-01-29T18:09:00.524Z,0.68
2023-01-29T18:14:13.512Z,0.67
2023-01-29T18:19:27.285Z,0.67
2023-01-29T18:24:31.449Z,0.68
2023-01-29T18:29:34.964Z,0.67
2023-01-29T18:34:38.328Z,0.70
2023-01-29T18:39:40.985Z,0.69
2023-01-29T18:44:43.680Z,0.67
2023-01-29T18:49:46.481Z,0.64
2023-01-29T18:54:50.105Z,0.64
2023-01-29T18:59:52.831Z,0.65
2023-01-29T19:04:55.627Z,0.65
2023-01-29T19:09:58.337Z,0.67
2023-01-29T19:15:01.410Z,0.67
2023-01-29T19:20:04.956Z,0.67
2023-01-29T19:25:08.331Z,0.67
2023-01-29T19:30:12.997Z,0.68
2023-01-29T19:35:16.033Z,0.70
2023-01-29T19:40:19.833Z,0.73
2023-01-29T19:45:49.137Z,0.76
2023-01-29T19:50:53.687Z,0.78
2023-01-29T19:55:58.971Z,0.76
2023-01-29T20:01:07.684Z,0.76
2023-01-29T20:06:11.439Z,0.75
2023-01-29T20:11:15.291Z,0.76
2023-01-29T20:16:19.322Z,0.76
2023-01-29T20:21:22.610Z,0.75
2023-01-29T20:26:25.756Z,0.72
2023-01-29T20:31:28.933Z,0.68
2023-01-29T20:36:32.021Z,0.65
2023-01-29T20:41:35.024Z,0.66
2023-01-29T20:46:38.518Z,0.67
2023-01-29T20:51:41.217Z,0.67
2023-01-29T20:56:46.172Z,0.68
2023-01-29T21:01:50.236Z,0.69
2023-01-29T21:06:53.000Z,0.68
2023-01-29T21:11:55.761Z,0.68
2023-01-29T21:16:58.650Z,0.70
2023-01-29T21:22:01.418Z,0.72
2023-01-29T21:27:04.126Z,0.74
2023-01-29T21:32:07.052Z,0.75
2023-01-29T21:37:09.917Z,0.77
2023-01-29T21:42:31.420Z,0.79
2023-01-29T21:47:34.157Z,0.82
2023-01-29T21:52:37.062Z,0.86
2023-01-29T21:57:40.141Z,0.86
2023-01-29T22:02:43.041Z,0.84
2023-01-29T22:07:46.182Z,0.85
2023-01-29T22:12:49.088Z,0.85
2023-01-29T22:17:51.892Z,0.86
2023-01-29T22:22:54.689Z,0.87
2023-01-29T22:27:57.395Z,0.88
2023-01-29T22:33:00.113Z,0.86
2023-01-29T22:38:03.891Z,0.86
2023-01-29T22:43:07.009Z,0.87
2023-01-29T22:48:09.729Z,0.87
2023-01-29T22:53:12.527Z,0.87
2023-01-29T22:58:15.223Z,0.87
2023-01-29T23:03:17.943Z,0.87
2023-01-29T23:08:20.929Z,0.87
2023-01-29T23:13:23.692Z,0.88
2023-01-29T23:18:26.424Z,0.88
2023-01-29T23:23:30.669Z,0.88
2023-01-29T23:28:33.369Z,0.89
2023-01-29T23:33:36.098Z,0.88
2023-01-29T23:38:39.432Z,0.89
2023-01-29T23:43:42.386Z,0.87
2023-01-29T23:48:45.078Z,0.87
2023-01-29T23:53:47.778Z,0.85
2023-01-29T23:58:57.332Z,0.86
